sensor_id;sensor_type;location;lat;lon;timestamp;temperature;humidity
84335;DHT22;74512;51.190;3.198;2024-02-26T00:01:52;8.90;1.00
84335;DHT22;74512;51.190;3.198;2024-02-26T00:04:18;8.90;1.00
84335;DHT22;74512;51.190;3.198;2024-02-26T00:06:43;9.20;1.00
84335;DHT22;74512;51.190;3.198;2024-02-26T00:09:10;9.10;1.00
84335;DHT22;74512;51.190;3.198;2024-02-26T00:11:36;9.10;1.00
84335;DHT22;74512;51.190;3.198;2024-02-26T00:14:03;9.20;1.00
84335;DHT22;74512;51.190;3.198;2024-02-26T00:16:29;9.20;1.00
84335;DHT22;74512;51.190;3.198;2024-02-26T00:18:54;9.20;1.00
84335;DHT22;74512;51.190;3.198;2024-02-26T00:21:20;9.00;1.00
84335;DHT22;74512;51.190;3.198;2024-02-26T00:23:45;9.40;1.00
84335;DHT22;74512;51.190;3.198;2024-02-26T00:26:11;9.00;1.00
84335;DHT22;74512;51.190;3.198;2024-02-26T00:28:37;8.80;1.00
84335;DHT22;74512;51.190;3.198;2024-02-26T00:31:03;9.10;1.00
84335;DHT22;74512;51.190;3.198;2024-02-26T00:33:29;9.00;1.00
84335;DHT22;74512;51.190;3.198;2024-02-26T00:35:55;8.90;1.00
84335;DHT22;74512;51.190;3.198;2024-02-26T00:38:20;9.00;1.00
84335;DHT22;74512;51.190;3.198;2024-02-26T00:40:46;8.80;1.00
84335;DHT22;74512;51.190;3.198;2024-02-26T00:43:12;8.80;1.00
84335;DHT22;74512;51.190;3.198;2024-02-26T00:45:37;8.40;1.00
84335;DHT22;74512;51.190;3.198;2024-02-26T00:48:03;8.40;1.00
84335;DHT22;74512;51.190;3.198;2024-02-26T00:50:33;8.70;1.00
84335;DHT22;74512;51.190;3.198;2024-02-26T00:52:59;9.00;1.00
84335;DHT22;74512;51.190;3.198;2024-02-26T00:55:25;8.70;1.00
84335;DHT22;74512;51.190;3.198;2024-02-26T00:57:51;8.50;1.00
84335;DHT22;74512;51.190;3.198;2024-02-26T01:00:16;8.70;1.00
84335;DHT22;74512;51.190;3.198;2024-02-26T01:02:42;8.70;1.00
84335;DHT22;74512;51.190;3.198;2024-02-26T01:05:08;8.70;1.00
84335;DHT22;74512;51.190;3.198;2024-02-26T01:07:37;8.60;1.00
84335;DHT22;74512;51.190;3.198;2024-02-26T01:10:05;8.30;1.00
84335;DHT22;74512;51.190;3.198;2024-02-26T01:12:32;8.30;1.00
84335;DHT22;74512;51.190;3.198;2024-02-26T01:14:58;8.50;1.00
84335;DHT22;74512;51.190;3.198;2024-02-26T01:17:24;8.30;1.00
84335;DHT22;74512;51.190;3.198;2024-02-26T01:19:49;8.20;1.00
84335;DHT22;74512;51.190;3.198;2024-02-26T01:22:15;8.60;1.00
84335;DHT22;74512;51.190;3.198;2024-02-26T01:24:41;8.70;1.00
84335;DHT22;74512;51.190;3.198;2024-02-26T01:27:06;8.60;1.00
84335;DHT22;74512;51.190;3.198;2024-02-26T01:29:33;8.70;1.00
84335;DHT22;74512;51.190;3.198;2024-02-26T01:31:59;8.60;1.00
84335;DHT22;74512;51.190;3.198;2024-02-26T01:34:24;8.50;1.00
84335;DHT22;74512;51.190;3.198;2024-02-26T01:36:50;8.40;1.00
84335;DHT22;74512;51.190;3.198;2024-02-26T01:39:15;8.30;1.00
84335;DHT22;74512;51.190;3.198;2024-02-26T01:41:41;8.30;1.00
84335;DHT22;74512;51.190;3.198;2024-02-26T01:44:07;8.10;1.00
84335;DHT22;74512;51.190;3.198;2024-02-26T01:46:34;8.20;1.00
84335;DHT22;74512;51.190;3.198;2024-02-26T01:49:02;8.40;1.00
84335;DHT22;74512;51.190;3.198;2024-02-26T01:51:29;8.40;1.00
84335;DHT22;74512;51.190;3.198;2024-02-26T01:53:57;8.40;1.00
84335;DHT22;74512;51.190;3.198;2024-02-26T01:56:23;8.60;1.00
84335;DHT22;74512;51.190;3.198;2024-02-26T01:58:53;8.20;1.00
84335;DHT22;74512;51.190;3.198;2024-02-26T02:01:21;8.20;1.00
84335;DHT22;74512;51.190;3.198;2024-02-26T02:03:48;8.10;1.00
84335;DHT22;74512;51.190;3.198;2024-02-26T02:06:13;8.20;1.00
84335;DHT22;74512;51.190;3.198;2024-02-26T02:08:40;8.30;1.00
84335;DHT22;74512;51.190;3.198;2024-02-26T02:11:06;8.40;1.00
84335;DHT22;74512;51.190;3.198;2024-02-26T02:13:32;8.40;1.00
84335;DHT22;74512;51.190;3.198;2024-02-26T02:15:58;8.40;1.00
84335;DHT22;74512;51.190;3.198;2024-02-26T02:18:23;8.40;1.00
84335;DHT22;74512;51.190;3.198;2024-02-26T02:20:49;8.40;1.00
84335;DHT22;74512;51.190;3.198;2024-02-26T02:23:15;8.60;1.00
84335;DHT22;74512;51.190;3.198;2024-02-26T02:25:40;8.70;1.00
84335;DHT22;74512;51.190;3.198;2024-02-26T02:28:06;8.20;1.00
84335;DHT22;74512;51.190;3.198;2024-02-26T02:30:32;8.20;1.00
84335;DHT22;74512;51.190;3.198;2024-02-26T02:32:58;8.10;1.00
84335;DHT22;74512;51.190;3.198;2024-02-26T02:35:24;8.30;1.00
84335;DHT22;74512;51.190;3.198;2024-02-26T02:37:54;8.30;1.00
84335;DHT22;74512;51.190;3.198;2024-02-26T02:40:20;8.20;1.00
84335;DHT22;74512;51.190;3.198;2024-02-26T02:42:45;8.40;1.00
84335;DHT22;74512;51.190;3.198;2024-02-26T02:45:11;8.50;1.00
84335;DHT22;74512;51.190;3.198;2024-02-26T02:47:37;8.50;1.00
84335;DHT22;74512;51.190;3.198;2024-02-26T02:50:03;8.30;1.00
84335;DHT22;74512;51.190;3.198;2024-02-26T02:52:29;8.60;1.00
84335;DHT22;74512;51.190;3.198;2024-02-26T02:54:55;8.40;1.00
84335;DHT22;74512;51.190;3.198;2024-02-26T02:57:20;8.30;1.00
84335;DHT22;74512;51.190;3.198;2024-02-26T02:59:46;8.20;1.00
84335;DHT22;74512;51.190;3.198;2024-02-26T03:02:12;8.10;1.00
84335;DHT22;74512;51.190;3.198;2024-02-26T03:04:38;8.20;1.00
84335;DHT22;74512;51.190;3.198;2024-02-26T03:07:03;8.40;1.00
84335;DHT22;74512;51.190;3.198;2024-02-26T03:09:29;8.30;1.00
84335;DHT22;74512;51.190;3.198;2024-02-26T03:11:55;8.20;1.00
84335;DHT22;74512;51.190;3.198;2024-02-26T03:14:21;8.20;1.00
84335;DHT22;74512;51.190;3.198;2024-02-26T03:16:46;8.10;1.00
84335;DHT22;74512;51.190;3.198;2024-02-26T03:19:15;8.20;1.00
84335;DHT22;74512;51.190;3.198;2024-02-26T03:21:41;8.20;1.00
84335;DHT22;74512;51.190;3.198;2024-02-26T03:24:07;8.00;1.00
84335;DHT22;74512;51.190;3.198;2024-02-26T03:26:36;8.20;1.00
84335;DHT22;74512;51.190;3.198;2024-02-26T03:29:02;8.20;1.00
84335;DHT22;74512;51.190;3.198;2024-02-26T03:31:28;8.10;1.00
84335;DHT22;74512;51.190;3.198;2024-02-26T03:33:54;8.20;1.00
84335;DHT22;74512;51.190;3.198;2024-02-26T03:36:19;8.20;1.00
84335;DHT22;74512;51.190;3.198;2024-02-26T03:38:47;8.10;1.00
84335;DHT22;74512;51.190;3.198;2024-02-26T03:41:13;8.20;1.00
84335;DHT22;74512;51.190;3.198;2024-02-26T03:43:39;8.00;1.00
84335;DHT22;74512;51.190;3.198;2024-02-26T03:46:07;7.60;1.00
84335;DHT22;74512;51.190;3.198;2024-02-26T03:48:34;8.00;1.00
84335;DHT22;74512;51.190;3.198;2024-02-26T03:50:59;8.10;1.00
84335;DHT22;74512;51.190;3.198;2024-02-26T03:53:25;8.00;1.00
84335;DHT22;74512;51.190;3.198;2024-02-26T03:55:51;8.20;1.00
84335;DHT22;74512;51.190;3.198;2024-02-26T03:58:18;8.30;1.00
84335;DHT22;74512;51.190;3.198;2024-02-26T04:00:43;8.30;1.00
84335;DHT22;74512;51.190;3.198;2024-02-26T04:03:10;8.50;1.00
84335;DHT22;74512;51.190;3.198;2024-02-26T04:05:35;8.10;1.00
84335;DHT22;74512;51.190;3.198;2024-02-26T04:08:01;8.00;1.00
84335;DHT22;74512;51.190;3.198;2024-02-26T04:10:27;8.20;1.00
84335;DHT22;74512;51.190;3.198;2024-02-26T04:12:52;8.00;1.00
84335;DHT22;74512;51.190;3.198;2024-02-26T04:15:18;7.90;1.00
84335;DHT22;74512;51.190;3.198;2024-02-26T04:17:43;7.70;1.00
84335;DHT22;74512;51.190;3.198;2024-02-26T04:20:14;8.00;1.00
84335;DHT22;74512;51.190;3.198;2024-02-26T04:22:41;8.00;1.00
84335;DHT22;74512;51.190;3.198;2024-02-26T04:25:07;8.30;1.00
84335;DHT22;74512;51.190;3.198;2024-02-26T04:27:32;7.90;1.00
84335;DHT22;74512;51.190;3.198;2024-02-26T04:29:58;7.90;1.00
84335;DHT22;74512;51.190;3.198;2024-02-26T04:32:24;8.10;1.00
84335;DHT22;74512;51.190;3.198;2024-02-26T04:34:49;8.00;1.00
84335;DHT22;74512;51.190;3.198;2024-02-26T04:37:15;8.40;1.00
84335;DHT22;74512;51.190;3.198;2024-02-26T04:39:40;8.30;1.00
84335;DHT22;74512;51.190;3.198;2024-02-26T04:42:06;8.20;1.00
84335;DHT22;74512;51.190;3.198;2024-02-26T04:44:32;8.10;1.00
84335;DHT22;74512;51.190;3.198;2024-02-26T04:46:58;8.10;1.00
84335;DHT22;74512;51.190;3.198;2024-02-26T04:49:24;8.30;1.00
84335;DHT22;74512;51.190;3.198;2024-02-26T04:51:49;8.10;1.00
84335;DHT22;74512;51.190;3.198;2024-02-26T04:54:15;8.10;1.00
84335;DHT22;74512;51.190;3.198;2024-02-26T04:56:41;7.90;1.00
84335;DHT22;74512;51.190;3.198;2024-02-26T04:59:06;7.90;1.00
84335;DHT22;74512;51.190;3.198;2024-02-26T05:01:32;7.80;1.00
84335;DHT22;74512;51.190;3.198;2024-02-26T05:03:57;8.00;1.00
84335;DHT22;74512;51.190;3.198;2024-02-26T05:06:23;7.70;1.00
84335;DHT22;74512;51.190;3.198;2024-02-26T05:08:49;7.90;1.00
84335;DHT22;74512;51.190;3.198;2024-02-26T05:11:14;7.80;1.00
84335;DHT22;74512;51.190;3.198;2024-02-26T05:13:41;8.10;1.00
84335;DHT22;74512;51.190;3.198;2024-02-26T05:16:06;8.00;1.00
84335;DHT22;74512;51.190;3.198;2024-02-26T05:18:32;8.00;1.00
84335;DHT22;74512;51.190;3.198;2024-02-26T05:20:58;8.10;1.00
84335;DHT22;74512;51.190;3.198;2024-02-26T05:23:23;8.30;1.00
84335;DHT22;74512;51.190;3.198;2024-02-26T05:25:49;8.20;1.00
84335;DHT22;74512;51.190;3.198;2024-02-26T05:28:15;8.10;1.00
84335;DHT22;74512;51.190;3.198;2024-02-26T05:30:45;8.00;1.00
84335;DHT22;74512;51.190;3.198;2024-02-26T05:33:11;7.80;1.00
84335;DHT22;74512;51.190;3.198;2024-02-26T05:35:38;8.10;1.00
84335;DHT22;74512;51.190;3.198;2024-02-26T05:38:03;8.10;1.00
84335;DHT22;74512;51.190;3.198;2024-02-26T05:40:29;8.10;1.00
84335;DHT22;74512;51.190;3.198;2024-02-26T05:42:55;8.20;1.00
84335;DHT22;74512;51.190;3.198;2024-02-26T05:45:21;7.90;1.00
84335;DHT22;74512;51.190;3.198;2024-02-26T05:47:47;8.00;1.00
84335;DHT22;74512;51.190;3.198;2024-02-26T05:50:13;8.00;1.00
84335;DHT22;74512;51.190;3.198;2024-02-26T05:52:40;8.00;1.00
84335;DHT22;74512;51.190;3.198;2024-02-26T05:55:06;8.10;1.00
84335;DHT22;74512;51.190;3.198;2024-02-26T05:57:32;8.00;1.00
84335;DHT22;74512;51.190;3.198;2024-02-26T05:59:58;8.10;1.00
84335;DHT22;74512;51.190;3.198;2024-02-26T06:02:31;8.40;1.00
84335;DHT22;74512;51.190;3.198;2024-02-26T06:04:57;8.10;1.00
84335;DHT22;74512;51.190;3.198;2024-02-26T06:07:23;8.10;1.00
84335;DHT22;74512;51.190;3.198;2024-02-26T06:09:49;7.80;1.00
84335;DHT22;74512;51.190;3.198;2024-02-26T06:12:14;8.00;1.00
84335;DHT22;74512;51.190;3.198;2024-02-26T06:14:42;8.10;1.00
84335;DHT22;74512;51.190;3.198;2024-02-26T06:17:07;8.30;1.00
84335;DHT22;74512;51.190;3.198;2024-02-26T06:19:33;8.40;1.00
84335;DHT22;74512;51.190;3.198;2024-02-26T06:21:58;8.40;1.00
84335;DHT22;74512;51.190;3.198;2024-02-26T06:24:24;8.20;1.00
84335;DHT22;74512;51.190;3.198;2024-02-26T06:26:50;8.30;1.00
84335;DHT22;74512;51.190;3.198;2024-02-26T06:29:16;8.70;1.00
84335;DHT22;74512;51.190;3.198;2024-02-26T06:31:41;8.20;1.00
84335;DHT22;74512;51.190;3.198;2024-02-26T06:34:07;8.50;1.00
84335;DHT22;74512;51.190;3.198;2024-02-26T06:36:32;8.60;1.00
84335;DHT22;74512;51.190;3.198;2024-02-26T06:38:58;8.30;1.00
84335;DHT22;74512;51.190;3.198;2024-02-26T06:41:24;8.50;1.00
84335;DHT22;74512;51.190;3.198;2024-02-26T06:43:55;8.50;1.00
84335;DHT22;74512;51.190;3.198;2024-02-26T06:46:22;8.60;1.00
84335;DHT22;74512;51.190;3.198;2024-02-26T06:48:48;8.70;1.00
84335;DHT22;74512;51.190;3.198;2024-02-26T06:51:14;8.60;1.00
84335;DHT22;74512;51.190;3.198;2024-02-26T06:53:40;8.20;1.00
84335;DHT22;74512;51.190;3.198;2024-02-26T06:56:06;8.40;1.00
84335;DHT22;74512;51.190;3.198;2024-02-26T06:58:31;8.40;1.00
84335;DHT22;74512;51.190;3.198;2024-02-26T07:00:57;8.50;1.00
84335;DHT22;74512;51.190;3.198;2024-02-26T07:03:23;8.90;1.00
84335;DHT22;74512;51.190;3.198;2024-02-26T07:05:49;9.00;1.00
84335;DHT22;74512;51.190;3.198;2024-02-26T07:08:15;8.50;1.00
84335;DHT22;74512;51.190;3.198;2024-02-26T07:10:41;8.60;1.00
84335;DHT22;74512;51.190;3.198;2024-02-26T07:13:07;8.30;1.00
84335;DHT22;74512;51.190;3.198;2024-02-26T07:15:33;8.20;1.00
84335;DHT22;74512;51.190;3.198;2024-02-26T07:17:58;8.20;1.00
84335;DHT22;74512;51.190;3.198;2024-02-26T07:20:28;8.00;1.00
84335;DHT22;74512;51.190;3.198;2024-02-26T07:22:54;8.30;1.00
84335;DHT22;74512;51.190;3.198;2024-02-26T07:25:20;8.50;1.00
84335;DHT22;74512;51.190;3.198;2024-02-26T07:27:46;8.40;1.00
84335;DHT22;74512;51.190;3.198;2024-02-26T07:30:12;8.60;1.00
84335;DHT22;74512;51.190;3.198;2024-02-26T07:32:38;8.40;1.00
84335;DHT22;74512;51.190;3.198;2024-02-26T07:35:04;8.50;1.00
84335;DHT22;74512;51.190;3.198;2024-02-26T07:37:30;8.40;1.00
84335;DHT22;74512;51.190;3.198;2024-02-26T07:39:56;7.90;1.00
84335;DHT22;74512;51.190;3.198;2024-02-26T07:42:21;8.10;1.00
84335;DHT22;74512;51.190;3.198;2024-02-26T07:44:47;8.10;1.00
84335;DHT22;74512;51.190;3.198;2024-02-26T07:47:13;8.30;1.00
84335;DHT22;74512;51.190;3.198;2024-02-26T07:49:40;8.50;1.00
84335;DHT22;74512;51.190;3.198;2024-02-26T07:52:05;8.40;1.00
84335;DHT22;74512;51.190;3.198;2024-02-26T07:54:31;8.30;1.00
84335;DHT22;74512;51.190;3.198;2024-02-26T07:56:56;8.50;1.00
84335;DHT22;74512;51.190;3.198;2024-02-26T07:59:22;8.00;1.00
84335;DHT22;74512;51.190;3.198;2024-02-26T08:01:51;8.10;1.00
84335;DHT22;74512;51.190;3.198;2024-02-26T08:04:17;8.30;1.00
84335;DHT22;74512;51.190;3.198;2024-02-26T08:06:42;8.20;1.00
84335;DHT22;74512;51.190;3.198;2024-02-26T08:09:08;8.20;1.00
84335;DHT22;74512;51.190;3.198;2024-02-26T08:11:34;7.90;1.00
84335;DHT22;74512;51.190;3.198;2024-02-26T08:14:01;8.10;1.00
84335;DHT22;74512;51.190;3.198;2024-02-26T08:16:26;8.10;1.00
84335;DHT22;74512;51.190;3.198;2024-02-26T08:18:52;7.90;1.00
84335;DHT22;74512;51.190;3.198;2024-02-26T08:21:18;7.90;1.00
84335;DHT22;74512;51.190;3.198;2024-02-26T08:23:44;7.80;1.00
84335;DHT22;74512;51.190;3.198;2024-02-26T08:26:09;8.10;1.00
84335;DHT22;74512;51.190;3.198;2024-02-26T08:28:39;8.20;1.00
84335;DHT22;74512;51.190;3.198;2024-02-26T08:31:05;8.20;1.00
84335;DHT22;74512;51.190;3.198;2024-02-26T08:33:31;8.10;1.00
84335;DHT22;74512;51.190;3.198;2024-02-26T08:35:57;8.00;1.00
84335;DHT22;74512;51.190;3.198;2024-02-26T08:38:23;8.60;1.00
84335;DHT22;74512;51.190;3.198;2024-02-26T08:40:49;8.70;1.00
84335;DHT22;74512;51.190;3.198;2024-02-26T08:43:15;8.40;1.00
84335;DHT22;74512;51.190;3.198;2024-02-26T08:45:40;8.10;1.00
84335;DHT22;74512;51.190;3.198;2024-02-26T08:48:06;8.20;1.00
84335;DHT22;74512;51.190;3.198;2024-02-26T08:50:33;7.80;1.00
84335;DHT22;74512;51.190;3.198;2024-02-26T08:52:59;8.00;1.00
84335;DHT22;74512;51.190;3.198;2024-02-26T08:55:26;8.00;1.00
84335;DHT22;74512;51.190;3.198;2024-02-26T08:57:52;8.00;1.00
84335;DHT22;74512;51.190;3.198;2024-02-26T09:00:18;8.10;1.00
84335;DHT22;74512;51.190;3.198;2024-02-26T09:02:46;8.00;1.00
84335;DHT22;74512;51.190;3.198;2024-02-26T09:05:12;8.00;1.00
84335;DHT22;74512;51.190;3.198;2024-02-26T09:07:38;7.50;1.00
84335;DHT22;74512;51.190;3.198;2024-02-26T09:10:05;7.90;1.00
84335;DHT22;74512;51.190;3.198;2024-02-26T09:12:31;8.20;1.00
84335;DHT22;74512;51.190;3.198;2024-02-26T09:14:56;8.30;1.00
84335;DHT22;74512;51.190;3.198;2024-02-26T09:17:23;8.30;1.00
84335;DHT22;74512;51.190;3.198;2024-02-26T09:19:48;8.00;1.00
84335;DHT22;74512;51.190;3.198;2024-02-26T09:22:14;8.10;1.00
84335;DHT22;74512;51.190;3.198;2024-02-26T09:24:40;7.70;1.00
84335;DHT22;74512;51.190;3.198;2024-02-26T09:27:05;7.70;1.00
84335;DHT22;74512;51.190;3.198;2024-02-26T09:29:31;8.10;1.00
84335;DHT22;74512;51.190;3.198;2024-02-26T09:31:57;8.50;1.00
84335;DHT22;74512;51.190;3.198;2024-02-26T09:34:24;8.50;1.00
84335;DHT22;74512;51.190;3.198;2024-02-26T09:36:49;8.30;1.00
84335;DHT22;74512;51.190;3.198;2024-02-26T09:39:15;8.40;1.00
84335;DHT22;74512;51.190;3.198;2024-02-26T09:41:45;8.40;1.00
84335;DHT22;74512;51.190;3.198;2024-02-26T09:44:12;8.20;1.00
84335;DHT22;74512;51.190;3.198;2024-02-26T09:46:40;8.40;1.00
84335;DHT22;74512;51.190;3.198;2024-02-26T09:49:08;7.90;1.00
84335;DHT22;74512;51.190;3.198;2024-02-26T09:51:34;8.30;1.00
84335;DHT22;74512;51.190;3.198;2024-02-26T09:54:00;8.40;1.00
84335;DHT22;74512;51.190;3.198;2024-02-26T09:56:28;8.60;1.00
84335;DHT22;74512;51.190;3.198;2024-02-26T09:58:56;8.20;1.00
84335;DHT22;74512;51.190;3.198;2024-02-26T10:01:22;8.10;1.00
84335;DHT22;74512;51.190;3.198;2024-02-26T10:03:56;8.10;1.00
84335;DHT22;74512;51.190;3.198;2024-02-26T10:06:22;8.00;1.00
84335;DHT22;74512;51.190;3.198;2024-02-26T10:08:49;8.20;1.00
84335;DHT22;74512;51.190;3.198;2024-02-26T10:11:16;8.00;1.00
84335;DHT22;74512;51.190;3.198;2024-02-26T10:13:42;8.20;1.00
84335;DHT22;74512;51.190;3.198;2024-02-26T10:16:07;8.30;1.00
84335;DHT22;74512;51.190;3.198;2024-02-26T10:18:50;8.40;1.00
84335;DHT22;74512;51.190;3.198;2024-02-26T10:21:16;8.20;1.00
84335;DHT22;74512;51.190;3.198;2024-02-26T10:23:46;8.30;1.00
84335;DHT22;74512;51.190;3.198;2024-02-26T10:26:13;8.20;1.00
84335;DHT22;74512;51.190;3.198;2024-02-26T10:28:41;8.20;1.00
84335;DHT22;74512;51.190;3.198;2024-02-26T10:31:07;8.10;1.00
84335;DHT22;74512;51.190;3.198;2024-02-26T10:33:34;8.00;1.00
84335;DHT22;74512;51.190;3.198;2024-02-26T10:36:04;8.20;1.00
84335;DHT22;74512;51.190;3.198;2024-02-26T10:38:31;8.30;1.00
84335;DHT22;74512;51.190;3.198;2024-02-26T10:40:57;8.60;1.00
84335;DHT22;74512;51.190;3.198;2024-02-26T10:43:23;8.80;1.00
84335;DHT22;74512;51.190;3.198;2024-02-26T10:45:48;8.20;1.00
84335;DHT22;74512;51.190;3.198;2024-02-26T10:48:14;8.20;1.00
84335;DHT22;74512;51.190;3.198;2024-02-26T10:50:43;8.30;1.00
84335;DHT22;74512;51.190;3.198;2024-02-26T10:53:20;8.30;1.00
84335;DHT22;74512;51.190;3.198;2024-02-26T10:55:55;8.50;1.00
84335;DHT22;74512;51.190;3.198;2024-02-26T10:58:22;8.60;1.00
84335;DHT22;74512;51.190;3.198;2024-02-26T11:00:51;8.50;1.00
84335;DHT22;74512;51.190;3.198;2024-02-26T11:03:18;8.80;1.00
84335;DHT22;74512;51.190;3.198;2024-02-26T11:05:49;8.90;1.00
84335;DHT22;74512;51.190;3.198;2024-02-26T11:08:19;8.50;1.00
84335;DHT22;74512;51.190;3.198;2024-02-26T11:10:52;8.70;1.00
84335;DHT22;74512;51.190;3.198;2024-02-26T11:13:19;8.70;1.00
84335;DHT22;74512;51.190;3.198;2024-02-26T11:15:46;8.90;1.00
84335;DHT22;74512;51.190;3.198;2024-02-26T11:18:15;9.20;1.00
84335;DHT22;74512;51.190;3.198;2024-02-26T11:20:41;9.10;1.00
84335;DHT22;74512;51.190;3.198;2024-02-26T11:23:08;8.90;1.00
84335;DHT22;74512;51.190;3.198;2024-02-26T11:25:35;8.80;1.00
84335;DHT22;74512;51.190;3.198;2024-02-26T11:28:05;9.00;1.00
84335;DHT22;74512;51.190;3.198;2024-02-26T11:30:33;8.70;1.00
84335;DHT22;74512;51.190;3.198;2024-02-26T11:33:00;8.80;1.00
84335;DHT22;74512;51.190;3.198;2024-02-26T11:35:27;8.30;1.00
84335;DHT22;74512;51.190;3.198;2024-02-26T11:37:57;8.50;1.00
84335;DHT22;74512;51.190;3.198;2024-02-26T11:40:26;8.60;1.00
84335;DHT22;74512;51.190;3.198;2024-02-26T11:42:53;8.50;1.00
84335;DHT22;74512;51.190;3.198;2024-02-26T11:45:47;8.30;1.00
84335;DHT22;74512;51.190;3.198;2024-02-26T11:48:23;8.70;1.00
84335;DHT22;74512;51.190;3.198;2024-02-26T11:50:54;8.30;1.00
84335;DHT22;74512;51.190;3.198;2024-02-26T11:53:30;8.50;1.00
84335;DHT22;74512;51.190;3.198;2024-02-26T11:59:05;8.60;1.00
84335;DHT22;74512;51.190;3.198;2024-02-26T12:01:45;8.50;1.00
84335;DHT22;74512;51.190;3.198;2024-02-26T12:04:22;8.20;1.00
84335;DHT22;74512;51.190;3.198;2024-02-26T12:07:11;8.30;1.00
84335;DHT22;74512;51.190;3.198;2024-02-26T12:09:40;8.30;1.00
84335;DHT22;74512;51.190;3.198;2024-02-26T12:12:07;8.50;1.00
84335;DHT22;74512;51.190;3.198;2024-02-26T12:14:41;8.50;1.00
84335;DHT22;74512;51.190;3.198;2024-02-26T12:17:25;8.50;1.00
84335;DHT22;74512;51.190;3.198;2024-02-26T12:19:51;8.50;1.00
84335;DHT22;74512;51.190;3.198;2024-02-26T12:22:19;8.60;1.00
84335;DHT22;74512;51.190;3.198;2024-02-26T12:24:45;8.70;1.00
84335;DHT22;74512;51.190;3.198;2024-02-26T12:27:11;8.60;1.00
84335;DHT22;74512;51.190;3.198;2024-02-26T12:29:37;8.60;1.00
84335;DHT22;74512;51.190;3.198;2024-02-26T12:32:04;8.50;1.00
84335;DHT22;74512;51.190;3.198;2024-02-26T12:34:31;8.40;1.00
84335;DHT22;74512;51.190;3.198;2024-02-26T12:36:57;8.30;1.00
84335;DHT22;74512;51.190;3.198;2024-02-26T12:39:23;8.40;1.00
84335;DHT22;74512;51.190;3.198;2024-02-26T12:41:48;8.50;1.00
84335;DHT22;74512;51.190;3.198;2024-02-26T12:44:17;8.20;1.00
84335;DHT22;74512;51.190;3.198;2024-02-26T12:46:43;8.30;1.00
84335;DHT22;74512;51.190;3.198;2024-02-26T12:49:08;8.50;1.00
84335;DHT22;74512;51.190;3.198;2024-02-26T12:51:40;8.50;1.00
84335;DHT22;74512;51.190;3.198;2024-02-26T12:54:07;8.40;1.00
84335;DHT22;74512;51.190;3.198;2024-02-26T12:56:34;8.40;1.00
84335;DHT22;74512;51.190;3.198;2024-02-26T12:59:00;8.50;1.00
84335;DHT22;74512;51.190;3.198;2024-02-26T13:01:27;8.50;1.00
84335;DHT22;74512;51.190;3.198;2024-02-26T13:03:53;8.40;1.00
84335;DHT22;74512;51.190;3.198;2024-02-26T13:06:20;8.40;1.00
84335;DHT22;74512;51.190;3.198;2024-02-26T13:08:47;8.40;1.00
84335;DHT22;74512;51.190;3.198;2024-02-26T13:11:13;8.40;1.00
84335;DHT22;74512;51.190;3.198;2024-02-26T13:13:39;8.60;1.00
84335;DHT22;74512;51.190;3.198;2024-02-26T13:16:13;8.60;1.00
84335;DHT22;74512;51.190;3.198;2024-02-26T13:18:39;8.70;1.00
84335;DHT22;74512;51.190;3.198;2024-02-26T13:21:14;8.60;1.00
84335;DHT22;74512;51.190;3.198;2024-02-26T13:23:41;8.60;1.00
84335;DHT22;74512;51.190;3.198;2024-02-26T13:26:08;8.40;1.00
84335;DHT22;74512;51.190;3.198;2024-02-26T13:28:34;8.30;1.00
84335;DHT22;74512;51.190;3.198;2024-02-26T13:31:00;8.50;1.00
84335;DHT22;74512;51.190;3.198;2024-02-26T13:33:27;8.50;1.00
84335;DHT22;74512;51.190;3.198;2024-02-26T13:35:54;8.50;1.00
84335;DHT22;74512;51.190;3.198;2024-02-26T13:38:20;8.40;1.00
84335;DHT22;74512;51.190;3.198;2024-02-26T13:40:46;8.40;1.00
84335;DHT22;74512;51.190;3.198;2024-02-26T13:43:12;8.40;1.00
84335;DHT22;74512;51.190;3.198;2024-02-26T13:45:38;8.40;1.00
84335;DHT22;74512;51.190;3.198;2024-02-26T13:48:07;8.70;1.00
84335;DHT22;74512;51.190;3.198;2024-02-26T13:50:33;8.70;1.00
84335;DHT22;74512;51.190;3.198;2024-02-26T13:52:58;8.70;1.00
84335;DHT22;74512;51.190;3.198;2024-02-26T13:55:28;8.70;1.00
84335;DHT22;74512;51.190;3.198;2024-02-26T13:57:56;8.70;1.00
84335;DHT22;74512;51.190;3.198;2024-02-26T14:00:22;8.50;1.00
84335;DHT22;74512;51.190;3.198;2024-02-26T14:02:48;8.60;1.00
84335;DHT22;74512;51.190;3.198;2024-02-26T14:05:14;8.60;1.00
84335;DHT22;74512;51.190;3.198;2024-02-26T14:07:40;8.50;1.00
84335;DHT22;74512;51.190;3.198;2024-02-26T14:10:07;8.50;1.00
84335;DHT22;74512;51.190;3.198;2024-02-26T14:12:32;8.70;1.00
84335;DHT22;74512;51.190;3.198;2024-02-26T14:14:58;8.60;1.00
84335;DHT22;74512;51.190;3.198;2024-02-26T14:17:26;8.60;1.00
84335;DHT22;74512;51.190;3.198;2024-02-26T14:19:52;8.60;1.00
84335;DHT22;74512;51.190;3.198;2024-02-26T14:22:18;8.70;1.00
84335;DHT22;74512;51.190;3.198;2024-02-26T14:24:44;8.60;1.00
84335;DHT22;74512;51.190;3.198;2024-02-26T14:27:11;8.60;1.00
84335;DHT22;74512;51.190;3.198;2024-02-26T14:29:40;8.40;1.00
84335;DHT22;74512;51.190;3.198;2024-02-26T14:32:07;8.60;1.00
84335;DHT22;74512;51.190;3.198;2024-02-26T14:34:33;8.50;1.00
84335;DHT22;74512;51.190;3.198;2024-02-26T14:36:58;8.50;1.00
84335;DHT22;74512;51.190;3.198;2024-02-26T14:39:24;8.50;1.00
84335;DHT22;74512;51.190;3.198;2024-02-26T14:41:50;8.60;1.00
84335;DHT22;74512;51.190;3.198;2024-02-26T14:44:15;8.60;1.00
84335;DHT22;74512;51.190;3.198;2024-02-26T14:46:41;8.80;1.00
84335;DHT22;74512;51.190;3.198;2024-02-26T14:49:07;8.70;1.00
84335;DHT22;74512;51.190;3.198;2024-02-26T14:51:33;8.60;1.00
84335;DHT22;74512;51.190;3.198;2024-02-26T14:53:58;8.50;1.00
84335;DHT22;74512;51.190;3.198;2024-02-26T14:56:26;8.60;1.00
84335;DHT22;74512;51.190;3.198;2024-02-26T14:58:51;8.70;1.00
84335;DHT22;74512;51.190;3.198;2024-02-26T15:01:17;8.70;1.00
84335;DHT22;74512;51.190;3.198;2024-02-26T15:03:43;8.80;1.00
84335;DHT22;74512;51.190;3.198;2024-02-26T15:06:09;8.70;1.00
84335;DHT22;74512;51.190;3.198;2024-02-26T15:08:34;8.70;1.00
84335;DHT22;74512;51.190;3.198;2024-02-26T15:11:01;8.80;1.00
84335;DHT22;74512;51.190;3.198;2024-02-26T15:13:27;8.70;1.00
84335;DHT22;74512;51.190;3.198;2024-02-26T15:15:52;8.90;1.00
84335;DHT22;74512;51.190;3.198;2024-02-26T15:18:18;8.90;1.00
84335;DHT22;74512;51.190;3.198;2024-02-26T15:20:44;8.60;1.00
84335;DHT22;74512;51.190;3.198;2024-02-26T15:23:11;8.80;1.00
84335;DHT22;74512;51.190;3.198;2024-02-26T15:25:37;8.80;1.00
84335;DHT22;74512;51.190;3.198;2024-02-26T15:28:03;8.80;1.00
84335;DHT22;74512;51.190;3.198;2024-02-26T15:30:29;8.80;1.00
84335;DHT22;74512;51.190;3.198;2024-02-26T15:32:57;8.60;1.00
84335;DHT22;74512;51.190;3.198;2024-02-26T15:35:23;8.50;1.00
84335;DHT22;74512;51.190;3.198;2024-02-26T15:37:48;8.80;1.00
84335;DHT22;74512;51.190;3.198;2024-02-26T15:40:14;8.80;1.00
84335;DHT22;74512;51.190;3.198;2024-02-26T15:42:41;8.80;1.00
84335;DHT22;74512;51.190;3.198;2024-02-26T15:45:06;9.10;1.00
84335;DHT22;74512;51.190;3.198;2024-02-26T15:47:33;9.10;1.00
84335;DHT22;74512;51.190;3.198;2024-02-26T15:50:00;9.20;1.00
84335;DHT22;74512;51.190;3.198;2024-02-26T15:52:27;9.30;1.00
84335;DHT22;74512;51.190;3.198;2024-02-26T15:54:54;9.50;1.00
84335;DHT22;74512;51.190;3.198;2024-02-26T15:57:19;9.30;1.00
84335;DHT22;74512;51.190;3.198;2024-02-26T15:59:46;9.30;1.00
84335;DHT22;74512;51.190;3.198;2024-02-26T16:02:13;9.10;1.00